Detall de PIREP

Printer-friendly versionPDF version

[2015/09/03 05:43:00]
Flight IATA:CT3400
Pilot Number:042
Company ICAO:CAT
Aircraft Type:B752/E
PAX:0
Aircraft Registration:CARGO
Departing Airport: LEBL
Destination Airport: BIKF
Alternate Airport:BIKR
Online: VATSIM
Route:MOPAS UN863 GIROM UY110 MANAK UN863 TIRAV UT183 DEGEX UN490 BERAD UM142 INSUN UN160 LEDGO DCT ERNAN DCT ATSIX DCT 57STN DCT ALDAN DCT VM B1 METIL G3 NASBU
Flight Level:F370
No Slew and time accel
No pause
Crash detect
Detect pilot in Cockpit between each 30 and 45 minutes
05:43 Zero fuel Weight: 200010 Lbs, Fuel Weight: 75374 Lbs
05:43 VATSIM:LEBL 030530Z 06013KT 030V090 9999 BKN021 SCT050 22/18 Q1012 NOSIG
05:43 VATSIM:BIKF 030530Z 20016KT 9999 -DZRA OVC007 10/10 Q1021
05:47 Parking Brakes off
05:52 Take-off
05:52 Take off Weight: 273709 Lbs
05:52 Wind: 065º @ 013 Knots Heading: 245º
05:52 POS N41º 17´ 00´´ E002º 04´ 38´´
05:52 Flaps:3 at 181 Knots
05:52 Flaps:2 at 190 Knots
05:53 Flaps:1 at 210 Knots
05:54 Flaps:0 at 223 Knots
05:58 Gear Up: 249 Knots
06:07 Wind:244º@059 Knots Heading: 325º Ground Speed: 469 Knots Altitude 26302 ft
06:12 TOC
06:12 Fuel Weight: 65555 Lb
06:22 Wind:248º@064 Knots Heading: 328º Ground Speed: 457 Knots Altitude 37053 ft
06:37 Wind:262º@040 Knots Heading: 331º Ground Speed: 452 Knots Altitude 37109 ft
06:52 Wind:270º@034 Knots Heading: 310º Ground Speed: 441 Knots Altitude 37165 ft
07:07 Wind:294º@024 Knots Heading: 329º Ground Speed: 446 Knots Altitude 37194 ft
07:22 Wind:340º@017 Knots Heading: 298º Ground Speed: 450 Knots Altitude 37181 ft
07:37 Wind:344º@019 Knots Heading: 000º Ground Speed: 445 Knots Altitude 37240 ft
07:52 Wind:002º@022 Knots Heading: 001º Ground Speed: 441 Knots Altitude 37211 ft
08:07 Wind:008º@027 Knots Heading: 348º Ground Speed: 438 Knots Altitude 37237 ft
08:22 Wind:007º@026 Knots Heading: 347º Ground Speed: 438 Knots Altitude 37224 ft
08:37 Wind:023º@022 Knots Heading: 347º Ground Speed: 444 Knots Altitude 37244 ft
08:52 Wind:034º@022 Knots Heading: 311º Ground Speed: 458 Knots Altitude 37267 ft
09:07 Wind:021º@025 Knots Heading: 308º Ground Speed: 451 Knots Altitude 37309 ft
09:22 Wind:319º@021 Knots Heading: 303º Ground Speed: 438 Knots Altitude 37316 ft
09:34 TOD
09:34 Fuel Weight: 37390 Lb
09:37 Wind:317º@042 Knots Heading: 301º Ground Speed: 386 Knots Altitude 34599 ft
09:48 Flaps:1 at 243 Knots
09:51 Flaps:2 at 198 Knots
09:52 Wind:246º@029 Knots Heading: 055º Ground Speed: 230 Knots Altitude 3536 ft
09:52 Flaps:3 at 185 Knots
09:52 Gear Down: 169 Knots
09:53 Flaps:4 at 178 Knots
09:54 Flaps:5 at 184 Knots
09:54 Flaps:6 at 164 Knots
09:57 TouchDown:Rate -423 ft/min Speed: 147 Knots
09:58 VATSIM:BIKF 030930Z 22017KT 0900 R20/P1500D FG OVC002 10/10 Q1020
09:58 Land
09:58 Wind:220º@017 Knots
09:58 Heading: 179º
09:58 Flight Duration: 04:06
09:58 Landing Weight: 234827 Lbs
09:58 POS N63º 58´ 55´´ W022º 36´ 20´´
10:01 Parking brakes on
10:01 Block to Block Duration: 04:14
10:01 Final Fuel: 34431 Lbls
10:01 Spent Fuel: 40943 Lbls
10:01 Flight Length: 1736 NM
10:01 TOD Land Length: 108 NM

Exportar CSV

Powered by Drupal - Modified by Danger4k